sensor_id;sensor_type;location;lat;lon;timestamp;P1;durP1;ratioP1;P2;durP2;ratioP2
19167;SDS011;9716;53.114;18.040;2023-07-02T00:00:28;7.57;;;4.18;;
19167;SDS011;9716;53.114;18.040;2023-07-02T00:03:17;4.75;;;3.13;;
19167;SDS011;9716;53.114;18.040;2023-07-02T00:05:49;6.57;;;3.88;;
19167;SDS011;9716;53.114;18.040;2023-07-02T00:08:21;7.07;;;3.45;;
19167;SDS011;9716;53.114;18.040;2023-07-02T00:10:51;5.70;;;3.17;;
19167;SDS011;9716;53.114;18.040;2023-07-02T00:13:20;5.65;;;3.15;;
19167;SDS011;9716;53.114;18.040;2023-07-02T00:15:48;8.88;;;3.55;;
19167;SDS011;9716;53.114;18.040;2023-07-02T00:18:17;17.90;;;3.60;;
19167;SDS011;9716;53.114;18.040;2023-07-02T00:20:45;15.20;;;3.80;;
19167;SDS011;9716;53.114;18.040;2023-07-02T00:23:14;6.70;;;3.35;;
19167;SDS011;9716;53.114;18.040;2023-07-02T00:25:43;4.55;;;2.95;;
19167;SDS011;9716;53.114;18.040;2023-07-02T00:28:13;5.38;;;3.08;;
19167;SDS011;9716;53.114;18.040;2023-07-02T00:30:41;5.72;;;3.38;;
19167;SDS011;9716;53.114;18.040;2023-07-02T00:33:10;4.30;;;2.92;;
19167;SDS011;9716;53.114;18.040;2023-07-02T00:35:38;5.82;;;3.22;;
19167;SDS011;9716;53.114;18.040;2023-07-02T00:38:06;6.25;;;3.20;;
19167;SDS011;9716;53.114;18.040;2023-07-02T00:40:35;5.80;;;2.70;;
19167;SDS011;9716;53.114;18.040;2023-07-02T00:43:06;5.75;;;3.58;;
19167;SDS011;9716;53.114;18.040;2023-07-02T00:45:41;5.72;;;3.38;;
19167;SDS011;9716;53.114;18.040;2023-07-02T00:48:09;10.75;;;3.13;;
19167;SDS011;9716;53.114;18.040;2023-07-02T00:50:39;4.85;;;3.10;;
19167;SDS011;9716;53.114;18.040;2023-07-02T00:53:08;5.47;;;3.40;;
19167;SDS011;9716;53.114;18.040;2023-07-02T00:55:36;6.15;;;3.10;;
19167;SDS011;9716;53.114;18.040;2023-07-02T00:58:05;5.70;;;3.00;;
19167;SDS011;9716;53.114;18.040;2023-07-02T01:00:35;4.22;;;2.97;;
19167;SDS011;9716;53.114;18.040;2023-07-02T01:03:05;4.57;;;3.08;;
19167;SDS011;9716;53.114;18.040;2023-07-02T01:05:33;5.03;;;3.08;;
19167;SDS011;9716;53.114;18.040;2023-07-02T01:08:03;4.53;;;2.72;;
19167;SDS011;9716;53.114;18.040;2023-07-02T01:10:32;5.65;;;2.88;;
19167;SDS011;9716;53.114;18.040;2023-07-02T01:13:04;4.00;;;2.80;;
19167;SDS011;9716;53.114;18.040;2023-07-02T01:15:36;4.18;;;2.20;;
19167;SDS011;9716;53.114;18.040;2023-07-02T01:18:06;5.53;;;3.30;;
19167;SDS011;9716;53.114;18.040;2023-07-02T01:20:36;3.90;;;2.65;;
19167;SDS011;9716;53.114;18.040;2023-07-02T01:23:06;4.95;;;3.05;;
19167;SDS011;9716;53.114;18.040;2023-07-02T01:25:36;5.50;;;2.88;;
19167;SDS011;9716;53.114;18.040;2023-07-02T01:28:04;4.63;;;2.78;;
19167;SDS011;9716;53.114;18.040;2023-07-02T01:30:33;4.38;;;2.70;;
19167;SDS011;9716;53.114;18.040;2023-07-02T01:33:05;3.80;;;2.65;;
19167;SDS011;9716;53.114;18.040;2023-07-02T01:35:33;3.30;;;2.58;;
19167;SDS011;9716;53.114;18.040;2023-07-02T01:38:03;4.47;;;2.72;;
19167;SDS011;9716;53.114;18.040;2023-07-02T01:40:32;4.93;;;2.83;;
19167;SDS011;9716;53.114;18.040;2023-07-02T01:43:00;3.65;;;2.58;;
19167;SDS011;9716;53.114;18.040;2023-07-02T01:45:29;3.45;;;2.13;;
19167;SDS011;9716;53.114;18.040;2023-07-02T01:47:57;8.15;;;3.05;;
19167;SDS011;9716;53.114;18.040;2023-07-02T01:50:25;4.03;;;2.53;;
19167;SDS011;9716;53.114;18.040;2023-07-02T01:52:54;4.65;;;3.00;;
19167;SDS011;9716;53.114;18.040;2023-07-02T01:55:24;3.10;;;2.20;;
19167;SDS011;9716;53.114;18.040;2023-07-02T01:57:52;2.70;;;2.17;;
19167;SDS011;9716;53.114;18.040;2023-07-02T02:00:21;6.38;;;2.67;;
19167;SDS011;9716;53.114;18.040;2023-07-02T02:02:51;4.47;;;2.55;;
19167;SDS011;9716;53.114;18.040;2023-07-02T02:05:19;5.47;;;2.45;;
19167;SDS011;9716;53.114;18.040;2023-07-02T02:07:48;7.82;;;2.53;;
19167;SDS011;9716;53.114;18.040;2023-07-02T02:10:17;4.97;;;3.13;;
19167;SDS011;9716;53.114;18.040;2023-07-02T02:12:47;4.22;;;3.05;;
19167;SDS011;9716;53.114;18.040;2023-07-02T02:15:15;3.10;;;2.45;;
19167;SDS011;9716;53.114;18.040;2023-07-02T02:17:44;3.60;;;2.70;;
19167;SDS011;9716;53.114;18.040;2023-07-02T02:20:13;4.15;;;2.70;;
19167;SDS011;9716;53.114;18.040;2023-07-02T02:22:42;5.55;;;2.45;;
19167;SDS011;9716;53.114;18.040;2023-07-02T02:25:10;5.72;;;2.55;;
19167;SDS011;9716;53.114;18.040;2023-07-02T02:27:39;5.55;;;2.75;;
19167;SDS011;9716;53.114;18.040;2023-07-02T02:30:09;5.75;;;2.97;;
19167;SDS011;9716;53.114;18.040;2023-07-02T02:32:38;2.60;;;2.38;;
19167;SDS011;9716;53.114;18.040;2023-07-02T02:35:06;6.47;;;2.50;;
19167;SDS011;9716;53.114;18.040;2023-07-02T02:37:36;7.07;;;2.58;;
19167;SDS011;9716;53.114;18.040;2023-07-02T02:40:06;3.65;;;2.33;;
19167;SDS011;9716;53.114;18.040;2023-07-02T02:42:36;3.28;;;2.40;;
19167;SDS011;9716;53.114;18.040;2023-07-02T02:45:05;4.00;;;2.75;;
19167;SDS011;9716;53.114;18.040;2023-07-02T02:47:36;4.25;;;2.42;;
19167;SDS011;9716;53.114;18.040;2023-07-02T02:50:05;6.55;;;2.70;;
19167;SDS011;9716;53.114;18.040;2023-07-02T02:52:36;3.30;;;2.30;;
19167;SDS011;9716;53.114;18.040;2023-07-02T02:55:05;2.30;;;2.10;;
19167;SDS011;9716;53.114;18.040;2023-07-02T02:57:35;4.35;;;2.70;;
19167;SDS011;9716;53.114;18.040;2023-07-02T03:00:04;4.22;;;2.03;;
19167;SDS011;9716;53.114;18.040;2023-07-02T03:02:38;4.63;;;2.38;;
19167;SDS011;9716;53.114;18.040;2023-07-02T03:05:07;2.80;;;1.83;;
19167;SDS011;9716;53.114;18.040;2023-07-02T03:07:36;3.03;;;2.70;;
19167;SDS011;9716;53.114;18.040;2023-07-02T03:10:05;3.10;;;2.08;;
19167;SDS011;9716;53.114;18.040;2023-07-02T03:12:34;4.90;;;2.35;;
19167;SDS011;9716;53.114;18.040;2023-07-02T03:15:03;2.67;;;1.98;;
19167;SDS011;9716;53.114;18.040;2023-07-02T03:17:32;5.05;;;2.17;;
19167;SDS011;9716;53.114;18.040;2023-07-02T03:20:02;2.60;;;1.92;;
19167;SDS011;9716;53.114;18.040;2023-07-02T03:22:31;3.40;;;2.00;;
19167;SDS011;9716;53.114;18.040;2023-07-02T03:25:00;5.60;;;2.45;;
19167;SDS011;9716;53.114;18.040;2023-07-02T03:27:29;2.08;;;1.73;;
19167;SDS011;9716;53.114;18.040;2023-07-02T03:29:57;5.78;;;2.15;;
19167;SDS011;9716;53.114;18.040;2023-07-02T03:32:26;3.22;;;2.10;;
19167;SDS011;9716;53.114;18.040;2023-07-02T03:34:55;5.57;;;1.80;;
19167;SDS011;9716;53.114;18.040;2023-07-02T03:37:25;4.10;;;2.13;;
19167;SDS011;9716;53.114;18.040;2023-07-02T03:39:56;3.35;;;1.92;;
19167;SDS011;9716;53.114;18.040;2023-07-02T03:42:25;4.20;;;2.05;;
19167;SDS011;9716;53.114;18.040;2023-07-02T03:44:53;1.90;;;1.50;;
19167;SDS011;9716;53.114;18.040;2023-07-02T03:47:22;3.65;;;1.83;;
19167;SDS011;9716;53.114;18.040;2023-07-02T03:49:51;3.22;;;2.25;;
19167;SDS011;9716;53.114;18.040;2023-07-02T03:52:20;3.40;;;1.95;;
19167;SDS011;9716;53.114;18.040;2023-07-02T03:54:50;2.67;;;1.95;;
19167;SDS011;9716;53.114;18.040;2023-07-02T03:57:19;3.05;;;1.83;;
19167;SDS011;9716;53.114;18.040;2023-07-02T03:59:47;2.47;;;1.88;;
19167;SDS011;9716;53.114;18.040;2023-07-02T04:02:16;5.07;;;2.15;;
19167;SDS011;9716;53.114;18.040;2023-07-02T04:04:44;2.95;;;2.15;;
19167;SDS011;9716;53.114;18.040;2023-07-02T04:07:13;3.63;;;1.95;;
19167;SDS011;9716;53.114;18.040;2023-07-02T04:09:42;3.30;;;1.88;;
19167;SDS011;9716;53.114;18.040;2023-07-02T04:12:12;5.15;;;1.92;;
19167;SDS011;9716;53.114;18.040;2023-07-02T04:14:40;2.40;;;1.63;;
19167;SDS011;9716;53.114;18.040;2023-07-02T04:17:12;2.13;;;1.63;;
19167;SDS011;9716;53.114;18.040;2023-07-02T04:19:41;4.88;;;1.80;;
19167;SDS011;9716;53.114;18.040;2023-07-02T04:22:09;2.67;;;1.77;;
19167;SDS011;9716;53.114;18.040;2023-07-02T04:24:37;3.05;;;1.75;;
19167;SDS011;9716;53.114;18.040;2023-07-02T04:27:07;2.92;;;1.55;;
19167;SDS011;9716;53.114;18.040;2023-07-02T04:29:57;2.25;;;1.50;;
19167;SDS011;9716;53.114;18.040;2023-07-02T04:32:25;2.35;;;1.48;;
19167;SDS011;9716;53.114;18.040;2023-07-02T04:34:54;3.42;;;1.60;;
19167;SDS011;9716;53.114;18.040;2023-07-02T04:37:23;1.73;;;1.50;;
19167;SDS011;9716;53.114;18.040;2023-07-02T04:39:51;4.43;;;1.95;;
19167;SDS011;9716;53.114;18.040;2023-07-02T04:42:20;3.83;;;1.92;;
19167;SDS011;9716;53.114;18.040;2023-07-02T04:44:48;2.28;;;1.83;;
19167;SDS011;9716;53.114;18.040;2023-07-02T04:47:19;5.55;;;2.03;;
19167;SDS011;9716;53.114;18.040;2023-07-02T04:49:47;3.50;;;1.48;;
19167;SDS011;9716;53.114;18.040;2023-07-02T04:52:16;1.63;;;1.52;;
19167;SDS011;9716;53.114;18.040;2023-07-02T04:54:44;3.90;;;1.98;;
19167;SDS011;9716;53.114;18.040;2023-07-02T04:57:13;3.58;;;1.90;;
19167;SDS011;9716;53.114;18.040;2023-07-02T04:59:42;11.38;;;1.45;;
19167;SDS011;9716;53.114;18.040;2023-07-02T05:02:11;1.60;;;1.35;;
19167;SDS011;9716;53.114;18.040;2023-07-02T05:04:40;2.10;;;1.38;;
19167;SDS011;9716;53.114;18.040;2023-07-02T05:07:09;2.15;;;1.70;;
19167;SDS011;9716;53.114;18.040;2023-07-02T05:09:37;4.25;;;2.20;;
19167;SDS011;9716;53.114;18.040;2023-07-02T05:12:06;8.77;;;1.58;;
19167;SDS011;9716;53.114;18.040;2023-07-02T05:14:35;3.47;;;2.00;;
19167;SDS011;9716;53.114;18.040;2023-07-02T05:17:04;2.40;;;1.83;;
19167;SDS011;9716;53.114;18.040;2023-07-02T05:19:33;4.25;;;1.60;;
19167;SDS011;9716;53.114;18.040;2023-07-02T05:22:03;2.15;;;1.80;;
19167;SDS011;9716;53.114;18.040;2023-07-02T05:24:31;4.30;;;1.65;;
19167;SDS011;9716;53.114;18.040;2023-07-02T05:27:00;2.40;;;1.35;;
19167;SDS011;9716;53.114;18.040;2023-07-02T05:29:28;4.60;;;1.35;;
19167;SDS011;9716;53.114;18.040;2023-07-02T05:31:57;2.28;;;1.50;;
19167;SDS011;9716;53.114;18.040;2023-07-02T05:34:25;2.20;;;1.35;;
19167;SDS011;9716;53.114;18.040;2023-07-02T05:36:54;2.65;;;1.52;;
19167;SDS011;9716;53.114;18.040;2023-07-02T05:39:24;1.85;;;1.60;;
19167;SDS011;9716;53.114;18.040;2023-07-02T05:41:52;7.38;;;1.70;;
19167;SDS011;9716;53.114;18.040;2023-07-02T05:44:21;1.45;;;1.35;;
19167;SDS011;9716;53.114;18.040;2023-07-02T05:46:50;1.88;;;1.30;;
19167;SDS011;9716;53.114;18.040;2023-07-02T05:49:18;3.00;;;1.58;;
19167;SDS011;9716;53.114;18.040;2023-07-02T05:51:47;1.52;;;1.30;;
19167;SDS011;9716;53.114;18.040;2023-07-02T05:54:16;2.17;;;1.30;;
19167;SDS011;9716;53.114;18.040;2023-07-02T05:56:46;1.60;;;1.30;;
19167;SDS011;9716;53.114;18.040;2023-07-02T05:59:14;2.10;;;1.20;;
19167;SDS011;9716;53.114;18.040;2023-07-02T06:01:46;5.38;;;1.40;;
19167;SDS011;9716;53.114;18.040;2023-07-02T06:04:14;1.25;;;1.15;;
19167;SDS011;9716;53.114;18.040;2023-07-02T06:06:43;1.40;;;1.30;;
19167;SDS011;9716;53.114;18.040;2023-07-02T06:09:12;4.32;;;1.30;;
19167;SDS011;9716;53.114;18.040;2023-07-02T06:11:40;1.70;;;0.95;;
19167;SDS011;9716;53.114;18.040;2023-07-02T06:14:10;1.15;;;1.02;;
19167;SDS011;9716;53.114;18.040;2023-07-02T06:16:39;1.67;;;1.05;;
19167;SDS011;9716;53.114;18.040;2023-07-02T06:19:08;1.52;;;1.13;;
19167;SDS011;9716;53.114;18.040;2023-07-02T06:21:37;1.20;;;1.10;;
19167;SDS011;9716;53.114;18.040;2023-07-02T06:24:05;1.17;;;1.08;;
19167;SDS011;9716;53.114;18.040;2023-07-02T06:26:34;1.20;;;0.98;;
19167;SDS011;9716;53.114;18.040;2023-07-02T06:29:02;1.85;;;1.17;;
19167;SDS011;9716;53.114;18.040;2023-07-02T06:31:32;1.85;;;1.10;;
19167;SDS011;9716;53.114;18.040;2023-07-02T06:34:01;8.95;;;1.05;;
19167;SDS011;9716;53.114;18.040;2023-07-02T06:36:30;1.25;;;1.00;;
19167;SDS011;9716;53.114;18.040;2023-07-02T06:38:58;1.35;;;0.80;;
19167;SDS011;9716;53.114;18.040;2023-07-02T06:41:27;1.13;;;0.90;;
19167;SDS011;9716;53.114;18.040;2023-07-02T06:43:56;2.03;;;1.20;;
19167;SDS011;9716;53.114;18.040;2023-07-02T06:46:24;3.63;;;0.82;;
19167;SDS011;9716;53.114;18.040;2023-07-02T06:48:54;1.88;;;0.98;;
19167;SDS011;9716;53.114;18.040;2023-07-02T06:51:23;1.48;;;0.93;;
19167;SDS011;9716;53.114;18.040;2023-07-02T06:53:53;0.80;;;0.68;;
19167;SDS011;9716;53.114;18.040;2023-07-02T06:56:22;0.70;;;0.70;;
19167;SDS011;9716;53.114;18.040;2023-07-02T06:58:50;1.23;;;0.98;;
19167;SDS011;9716;53.114;18.040;2023-07-02T07:01:19;2.15;;;1.08;;
19167;SDS011;9716;53.114;18.040;2023-07-02T07:03:48;4.78;;;1.60;;
19167;SDS011;9716;53.114;18.040;2023-07-02T07:06:18;1.02;;;0.82;;
19167;SDS011;9716;53.114;18.040;2023-07-02T07:08:46;3.10;;;1.00;;
19167;SDS011;9716;53.114;18.040;2023-07-02T07:11:15;1.38;;;1.05;;
19167;SDS011;9716;53.114;18.040;2023-07-02T07:13:44;1.00;;;0.90;;
19167;SDS011;9716;53.114;18.040;2023-07-02T07:16:12;1.45;;;1.17;;
19167;SDS011;9716;53.114;18.040;2023-07-02T07:18:41;0.95;;;0.90;;
19167;SDS011;9716;53.114;18.040;2023-07-02T07:21:12;1.23;;;1.00;;
19167;SDS011;9716;53.114;18.040;2023-07-02T07:23:41;2.28;;;1.23;;
19167;SDS011;9716;53.114;18.040;2023-07-02T07:26:10;1.05;;;0.95;;
19167;SDS011;9716;53.114;18.040;2023-07-02T07:28:38;3.13;;;1.33;;
19167;SDS011;9716;53.114;18.040;2023-07-02T07:31:08;1.88;;;1.00;;
19167;SDS011;9716;53.114;18.040;2023-07-02T07:33:36;1.30;;;1.20;;
19167;SDS011;9716;53.114;18.040;2023-07-02T07:36:05;2.67;;;1.25;;
19167;SDS011;9716;53.114;18.040;2023-07-02T07:38:33;4.03;;;1.15;;
19167;SDS011;9716;53.114;18.040;2023-07-02T07:41:03;1.25;;;1.08;;
19167;SDS011;9716;53.114;18.040;2023-07-02T07:43:32;2.30;;;1.05;;
19167;SDS011;9716;53.114;18.040;2023-07-02T07:46:02;1.27;;;1.13;;
19167;SDS011;9716;53.114;18.040;2023-07-02T07:48:30;1.40;;;1.30;;
19167;SDS011;9716;53.114;18.040;2023-07-02T07:50:59;2.08;;;1.33;;
19167;SDS011;9716;53.114;18.040;2023-07-02T07:53:28;1.25;;;1.10;;
19167;SDS011;9716;53.114;18.040;2023-07-02T07:55:57;1.20;;;1.08;;
19167;SDS011;9716;53.114;18.040;2023-07-02T07:58:26;6.90;;;1.30;;
19167;SDS011;9716;53.114;18.040;2023-07-02T08:00:55;2.53;;;1.33;;
19167;SDS011;9716;53.114;18.040;2023-07-02T08:03:23;0.90;;;0.90;;
19167;SDS011;9716;53.114;18.040;2023-07-02T08:05:52;1.10;;;1.00;;
19167;SDS011;9716;53.114;18.040;2023-07-02T08:08:21;3.28;;;1.30;;
19167;SDS011;9716;53.114;18.040;2023-07-02T08:10:50;1.50;;;1.30;;
19167;SDS011;9716;53.114;18.040;2023-07-02T08:13:18;1.02;;;0.80;;
19167;SDS011;9716;53.114;18.040;2023-07-02T08:15:51;4.55;;;1.10;;
19167;SDS011;9716;53.114;18.040;2023-07-02T08:18:19;3.50;;;1.60;;
19167;SDS011;9716;53.114;18.040;2023-07-02T08:20:48;0.90;;;0.90;;
19167;SDS011;9716;53.114;18.040;2023-07-02T08:23:17;2.05;;;1.30;;
19167;SDS011;9716;53.114;18.040;2023-07-02T08:25:45;1.15;;;0.75;;
19167;SDS011;9716;53.114;18.040;2023-07-02T08:28:14;2.00;;;1.25;;
19167;SDS011;9716;53.114;18.040;2023-07-02T08:30:43;1.08;;;0.90;;
19167;SDS011;9716;53.114;18.040;2023-07-02T08:33:13;1.52;;;1.05;;
19167;SDS011;9716;53.114;18.040;2023-07-02T08:35:42;1.23;;;0.75;;
19167;SDS011;9716;53.114;18.040;2023-07-02T08:38:10;2.50;;;1.15;;
19167;SDS011;9716;53.114;18.040;2023-07-02T08:40:38;1.05;;;0.95;;
19167;SDS011;9716;53.114;18.040;2023-07-02T08:43:07;1.33;;;0.90;;
19167;SDS011;9716;53.114;18.040;2023-07-02T08:45:36;0.85;;;0.82;;
19167;SDS011;9716;53.114;18.040;2023-07-02T08:48:05;4.20;;;1.13;;
19167;SDS011;9716;53.114;18.040;2023-07-02T08:50:35;1.10;;;1.00;;
19167;SDS011;9716;53.114;18.040;2023-07-02T08:53:04;7.18;;;1.08;;
19167;SDS011;9716;53.114;18.040;2023-07-02T08:55:32;2.35;;;1.17;;
19167;SDS011;9716;53.114;18.040;2023-07-02T08:58:01;4.90;;;0.93;;
19167;SDS011;9716;53.114;18.040;2023-07-02T09:00:30;1.52;;;1.10;;
19167;SDS011;9716;53.114;18.040;2023-07-02T09:03:11;2.72;;;1.00;;
19167;SDS011;9716;53.114;18.040;2023-07-02T09:05:51;1.10;;;0.80;;
19167;SDS011;9716;53.114;18.040;2023-07-02T09:08:23;2.42;;;1.23;;
19167;SDS011;9716;53.114;18.040;2023-07-02T09:10:52;2.25;;;1.20;;
19167;SDS011;9716;53.114;18.040;2023-07-02T09:13:21;2.38;;;1.00;;
19167;SDS011;9716;53.114;18.040;2023-07-02T09:15:49;1.55;;;1.20;;
19167;SDS011;9716;53.114;18.040;2023-07-02T09:18:18;1.13;;;1.02;;
19167;SDS011;9716;53.114;18.040;2023-07-02T09:20:50;1.77;;;1.10;;
19167;SDS011;9716;53.114;18.040;2023-07-02T09:23:21;1.88;;;1.25;;
19167;SDS011;9716;53.114;18.040;2023-07-02T09:25:52;2.72;;;1.08;;
19167;SDS011;9716;53.114;18.040;2023-07-02T09:28:21;5.70;;;1.45;;
19167;SDS011;9716;53.114;18.040;2023-07-02T09:30:51;1.17;;;1.00;;
19167;SDS011;9716;53.114;18.040;2023-07-02T09:33:20;2.70;;;1.48;;
19167;SDS011;9716;53.114;18.040;2023-07-02T09:35:55;1.83;;;1.17;;
19167;SDS011;9716;53.114;18.040;2023-07-02T09:38:23;2.67;;;1.20;;
19167;SDS011;9716;53.114;18.040;2023-07-02T09:40:54;1.67;;;1.23;;
19167;SDS011;9716;53.114;18.040;2023-07-02T09:43:23;1.70;;;1.05;;
19167;SDS011;9716;53.114;18.040;2023-07-02T09:45:54;2.35;;;1.40;;
19167;SDS011;9716;53.114;18.040;2023-07-02T09:48:24;2.78;;;1.13;;
19167;SDS011;9716;53.114;18.040;2023-07-02T09:50:57;1.48;;;1.35;;
19167;SDS011;9716;53.114;18.040;2023-07-02T09:53:27;2.03;;;1.20;;
19167;SDS011;9716;53.114;18.040;2023-07-02T09:55:57;2.58;;;1.13;;
19167;SDS011;9716;53.114;18.040;2023-07-02T09:58:25;2.05;;;1.30;;
19167;SDS011;9716;53.114;18.040;2023-07-02T10:00:54;1.90;;;1.33;;
19167;SDS011;9716;53.114;18.040;2023-07-02T10:03:29;4.38;;;1.15;;
19167;SDS011;9716;53.114;18.040;2023-07-02T10:06:06;2.15;;;1.48;;
19167;SDS011;9716;53.114;18.040;2023-07-02T10:08:35;1.30;;;1.20;;
19167;SDS011;9716;53.114;18.040;2023-07-02T10:11:08;1.77;;;1.25;;
19167;SDS011;9716;53.114;18.040;2023-07-02T10:13:37;2.95;;;1.55;;
19167;SDS011;9716;53.114;18.040;2023-07-02T10:16:06;1.10;;;1.00;;
19167;SDS011;9716;53.114;18.040;2023-07-02T10:18:34;5.60;;;1.35;;
19167;SDS011;9716;53.114;18.040;2023-07-02T10:21:14;1.15;;;1.08;;
19167;SDS011;9716;53.114;18.040;2023-07-02T10:23:44;1.75;;;1.25;;
19167;SDS011;9716;53.114;18.040;2023-07-02T10:26:13;5.72;;;1.60;;
19167;SDS011;9716;53.114;18.040;2023-07-02T10:28:43;2.30;;;1.35;;
19167;SDS011;9716;53.114;18.040;2023-07-02T10:31:24;2.55;;;1.60;;
19167;SDS011;9716;53.114;18.040;2023-07-02T10:33:52;1.10;;;1.00;;
19167;SDS011;9716;53.114;18.040;2023-07-02T10:36:23;1.20;;;1.10;;
19167;SDS011;9716;53.114;18.040;2023-07-02T10:38:52;1.63;;;0.98;;
19167;SDS011;9716;53.114;18.040;2023-07-02T10:41:24;2.80;;;1.25;;
19167;SDS011;9716;53.114;18.040;2023-07-02T10:44:04;2.22;;;1.25;;
19167;SDS011;9716;53.114;18.040;2023-07-02T10:46:34;1.02;;;0.88;;
19167;SDS011;9716;53.114;18.040;2023-07-02T10:49:10;2.90;;;1.23;;
19167;SDS011;9716;53.114;18.040;2023-07-02T10:51:41;2.38;;;1.55;;
19167;SDS011;9716;53.114;18.040;2023-07-02T10:54:09;2.30;;;1.40;;
19167;SDS011;9716;53.114;18.040;2023-07-02T10:56:38;1.73;;;1.25;;
19167;SDS011;9716;53.114;18.040;2023-07-02T10:59:09;3.70;;;1.25;;
19167;SDS011;9716;53.114;18.040;2023-07-02T11:01:39;1.27;;;1.00;;
19167;SDS011;9716;53.114;18.040;2023-07-02T11:04:08;1.65;;;1.35;;
19167;SDS011;9716;53.114;18.040;2023-07-02T11:06:37;1.48;;;1.10;;
19167;SDS011;9716;53.114;18.040;2023-07-02T11:09:16;2.75;;;1.17;;
19167;SDS011;9716;53.114;18.040;2023-07-02T11:11:51;1.38;;;1.20;;
19167;SDS011;9716;53.114;18.040;2023-07-02T11:14:27;1.48;;;1.25;;
19167;SDS011;9716;53.114;18.040;2023-07-02T11:16:58;3.00;;;1.27;;
19167;SDS011;9716;53.114;18.040;2023-07-02T11:19:29;3.90;;;1.30;;
19167;SDS011;9716;53.114;18.040;2023-07-02T11:21:58;1.52;;;1.08;;
19167;SDS011;9716;53.114;18.040;2023-07-02T11:24:30;2.75;;;1.23;;
19167;SDS011;9716;53.114;18.040;2023-07-02T11:27:00;13.20;;;1.52;;
19167;SDS011;9716;53.114;18.040;2023-07-02T11:29:30;4.95;;;1.65;;
19167;SDS011;9716;53.114;18.040;2023-07-02T11:32:05;5.72;;;1.02;;
19167;SDS011;9716;53.114;18.040;2023-07-02T11:34:34;1.70;;;1.30;;
19167;SDS011;9716;53.114;18.040;2023-07-02T11:37:04;2.85;;;1.50;;
19167;SDS011;9716;53.114;18.040;2023-07-02T11:39:34;1.23;;;1.13;;
19167;SDS011;9716;53.114;18.040;2023-07-02T11:42:03;2.25;;;1.40;;
19167;SDS011;9716;53.114;18.040;2023-07-02T11:44:31;2.40;;;1.33;;
19167;SDS011;9716;53.114;18.040;2023-07-02T11:47:00;3.97;;;1.13;;
19167;SDS011;9716;53.114;18.040;2023-07-02T11:49:32;7.30;;;1.50;;
19167;SDS011;9716;53.114;18.040;2023-07-02T11:52:00;4.70;;;1.23;;
19167;SDS011;9716;53.114;18.040;2023-07-02T11:54:29;1.65;;;1.20;;
19167;SDS011;9716;53.114;18.040;2023-07-02T11:56:59;1.42;;;0.95;;
19167;SDS011;9716;53.114;18.040;2023-07-02T11:59:28;2.50;;;1.40;;
19167;SDS011;9716;53.114;18.040;2023-07-02T12:01:57;1.45;;;1.17;;
19167;SDS011;9716;53.114;18.040;2023-07-02T12:04:25;1.65;;;1.10;;
19167;SDS011;9716;53.114;18.040;2023-07-02T12:06:54;6.18;;;1.20;;
19167;SDS011;9716;53.114;18.040;2023-07-02T12:09:24;2.08;;;1.00;;
19167;SDS011;9716;53.114;18.040;2023-07-02T12:11:54;3.67;;;1.27;;
19167;SDS011;9716;53.114;18.040;2023-07-02T12:14:24;2.47;;;1.23;;
19167;SDS011;9716;53.114;18.040;2023-07-02T12:16:53;0.60;;;0.60;;
19167;SDS011;9716;53.114;18.040;2023-07-02T12:19:21;8.45;;;1.40;;
19167;SDS011;9716;53.114;18.040;2023-07-02T12:21:50;2.10;;;1.23;;
19167;SDS011;9716;53.114;18.040;2023-07-02T12:24:18;5.63;;;1.38;;
19167;SDS011;9716;53.114;18.040;2023-07-02T12:26:47;1.90;;;1.20;;
19167;SDS011;9716;53.114;18.040;2023-07-02T12:29:16;4.47;;;1.60;;
19167;SDS011;9716;53.114;18.040;2023-07-02T12:31:46;3.40;;;1.30;;
19167;SDS011;9716;53.114;18.040;2023-07-02T12:34:14;6.22;;;1.05;;
19167;SDS011;9716;53.114;18.040;2023-07-02T12:36:43;3.15;;;1.65;;
19167;SDS011;9716;53.114;18.040;2023-07-02T12:39:11;5.55;;;1.55;;
19167;SDS011;9716;53.114;18.040;2023-07-02T12:41:43;8.02;;;1.75;;
19167;SDS011;9716;53.114;18.040;2023-07-02T12:44:12;3.28;;;1.38;;
19167;SDS011;9716;53.114;18.040;2023-07-02T12:46:41;1.35;;;1.02;;
19167;SDS011;9716;53.114;18.040;2023-07-02T12:49:11;2.28;;;1.13;;
19167;SDS011;9716;53.114;18.040;2023-07-02T12:51:40;1.90;;;1.40;;
19167;SDS011;9716;53.114;18.040;2023-07-02T12:54:08;5.75;;;1.48;;
19167;SDS011;9716;53.114;18.040;2023-07-02T12:56:39;1.30;;;1.13;;
19167;SDS011;9716;53.114;18.040;2023-07-02T12:59:08;1.38;;;1.15;;
19167;SDS011;9716;53.114;18.040;2023-07-02T13:01:38;4.35;;;1.40;;
19167;SDS011;9716;53.114;18.040;2023-07-02T13:04:06;2.00;;;1.20;;
19167;SDS011;9716;53.114;18.040;2023-07-02T13:06:40;2.22;;;1.38;;
19167;SDS011;9716;53.114;18.040;2023-07-02T13:09:12;2.70;;;1.52;;
19167;SDS011;9716;53.114;18.040;2023-07-02T13:11:41;3.05;;;1.50;;
19167;SDS011;9716;53.114;18.040;2023-07-02T13:14:10;5.22;;;1.30;;
19167;SDS011;9716;53.114;18.040;2023-07-02T13:16:41;2.15;;;1.30;;
19167;SDS011;9716;53.114;18.040;2023-07-02T13:19:11;3.20;;;1.23;;
19167;SDS011;9716;53.114;18.040;2023-07-02T13:21:41;1.95;;;1.58;;
19167;SDS011;9716;53.114;18.040;2023-07-02T13:24:10;6.10;;;1.38;;
19167;SDS011;9716;53.114;18.040;2023-07-02T13:26:39;5.22;;;1.50;;
19167;SDS011;9716;53.114;18.040;2023-07-02T13:29:11;6.03;;;1.40;;
19167;SDS011;9716;53.114;18.040;2023-07-02T13:31:40;6.72;;;1.50;;
19167;SDS011;9716;53.114;18.040;2023-07-02T13:34:08;3.28;;;1.80;;
19167;SDS011;9716;53.114;18.040;2023-07-02T13:36:37;2.47;;;1.55;;
19167;SDS011;9716;53.114;18.040;2023-07-02T13:39:07;1.92;;;1.35;;
19167;SDS011;9716;53.114;18.040;2023-07-02T13:41:35;1.85;;;1.60;;
19167;SDS011;9716;53.114;18.040;2023-07-02T13:44:04;2.22;;;1.63;;
19167;SDS011;9716;53.114;18.040;2023-07-02T13:46:33;2.78;;;1.38;;
19167;SDS011;9716;53.114;18.040;2023-07-02T13:49:02;3.88;;;2.38;;
19167;SDS011;9716;53.114;18.040;2023-07-02T13:51:31;1.85;;;1.38;;
19167;SDS011;9716;53.114;18.040;2023-07-02T13:53:59;1.60;;;1.50;;
19167;SDS011;9716;53.114;18.040;2023-07-02T13:56:29;2.92;;;1.85;;
19167;SDS011;9716;53.114;18.040;2023-07-02T13:59:05;7.47;;;1.88;;
19167;SDS011;9716;53.114;18.040;2023-07-02T14:01:34;2.45;;;1.70;;
19167;SDS011;9716;53.114;18.040;2023-07-02T14:04:03;2.05;;;1.25;;
19167;SDS011;9716;53.114;18.040;2023-07-02T14:06:32;3.10;;;1.67;;
19167;SDS011;9716;53.114;18.040;2023-07-02T14:09:01;2.03;;;1.45;;
19167;SDS011;9716;53.114;18.040;2023-07-02T14:11:30;5.00;;;1.60;;
19167;SDS011;9716;53.114;18.040;2023-07-02T14:13:58;2.00;;;1.65;;
19167;SDS011;9716;53.114;18.040;2023-07-02T14:16:28;3.22;;;1.73;;
19167;SDS011;9716;53.114;18.040;2023-07-02T14:18:57;3.90;;;1.90;;
19167;SDS011;9716;53.114;18.040;2023-07-02T14:21:28;1.83;;;1.45;;
19167;SDS011;9716;53.114;18.040;2023-07-02T14:23:57;3.58;;;1.80;;
19167;SDS011;9716;53.114;18.040;2023-07-02T14:26:26;2.47;;;1.80;;
19167;SDS011;9716;53.114;18.040;2023-07-02T14:28:54;4.60;;;1.92;;
19167;SDS011;9716;53.114;18.040;2023-07-02T14:31:23;2.70;;;1.63;;
19167;SDS011;9716;53.114;18.040;2023-07-02T14:33:53;3.05;;;1.75;;
19167;SDS011;9716;53.114;18.040;2023-07-02T14:36:21;19.63;;;2.38;;
19167;SDS011;9716;53.114;18.040;2023-07-02T14:38:50;2.47;;;1.63;;
19167;SDS011;9716;53.114;18.040;2023-07-02T14:41:19;8.85;;;2.13;;
19167;SDS011;9716;53.114;18.040;2023-07-02T14:43:47;6.25;;;1.95;;
19167;SDS011;9716;53.114;18.040;2023-07-02T14:46:16;4.43;;;1.88;;
19167;SDS011;9716;53.114;18.040;2023-07-02T14:48:44;3.05;;;1.73;;
19167;SDS011;9716;53.114;18.040;2023-07-02T14:51:14;10.52;;;1.90;;
19167;SDS011;9716;53.114;18.040;2023-07-02T14:53:43;3.50;;;2.00;;
19167;SDS011;9716;53.114;18.040;2023-07-02T14:56:12;3.97;;;1.63;;
19167;SDS011;9716;53.114;18.040;2023-07-02T14:58:40;14.70;;;2.22;;
19167;SDS011;9716;53.114;18.040;2023-07-02T15:01:09;7.10;;;1.52;;